Time;durP1;ratioP1;P1;durP2;ratioP2;P2;SDS_P1;SDS_P2;PMS_P1;PMS_P2;Temp;Humidity;BMP_temperature;BMP_pressure;BME280_temperature;BME280_humidity;BME280_pressure;Samples;Min_cycle;Max_cycle;Signal;HPM_P1;HPM_P2
2022/01/16 00:01:45;;;;;;;22.20;19.90;;;4.90;1.00;5.40;101313.00;;;;5036446;28;20898;-79
2022/01/16 00:04:12;;;;;;;21.33;19.07;;;4.80;1.00;5.40;101262.00;;;;5039778;28;20449;-81
2022/01/16 00:06:43;;;;;;;23.10;20.37;;;4.80;1.00;5.40;101264.00;;;;5031619;28;20540;-82
2022/01/16 00:09:12;;;;;;;23.20;20.80;;;4.80;1.00;5.50;101264.00;;;;5026625;28;20460;-80
2022/01/16 00:11:42;;;;;;;24.73;21.90;;;4.80;1.00;5.60;101270.00;;;;5033217;28;20911;-78
2022/01/16 00:14:11;;;;;;;25.30;22.67;;;4.90;1.00;5.50;101279.00;;;;5029529;28;20473;-82
2022/01/16 00:16:41;;;;;;;25.60;22.70;;;4.90;1.00;5.60;101310.00;;;;5013197;28;20458;-80
2022/01/16 00:19:10;;;;;;;24.43;21.70;;;4.90;1.00;5.60;101298.00;;;;5017497;28;20479;-80
2022/01/16 00:21:41;;;;;;;26.03;23.23;;;5.00;1.00;217.30;159080.00;;;;5011824;28;20477;-78
2022/01/16 00:24:12;;;;;;;26.13;22.93;;;5.00;1.00;5.60;101288.00;;;;5013147;28;20484;-79
2022/01/16 00:26:41;;;;;;;26.90;24.10;;;5.00;1.00;5.70;101066.00;;;;5022427;28;20468;-80
2022/01/16 00:29:12;;;;;;;26.50;22.80;;;5.10;1.00;5.80;101294.00;;;;5029745;28;20532;-81
2022/01/16 00:31:43;;;;;;;26.87;23.80;;;5.10;1.00;5.80;101275.00;;;;5032138;28;20472;-79
2022/01/16 00:34:13;;;;;;;28.37;25.30;;;5.10;1.00;5.80;101258.00;;;;5013152;28;20505;-79
2022/01/16 00:36:41;;;;;;;29.13;25.70;;;5.20;1.00;5.80;101255.00;;;;5027630;28;20954;-80
2022/01/16 00:39:10;;;;;;;30.40;26.80;;;5.20;1.00;5.70;101251.00;;;;5012424;28;20464;-81
2022/01/16 00:41:43;;;;;;;31.23;26.03;;;5.10;1.00;5.60;67492.00;;;;5018658;28;21355;-81
2022/01/16 00:44:12;;;;;;;31.80;26.57;;;5.00;1.00;5.50;101238.00;;;;5014018;28;20556;-82
2022/01/16 00:46:46;;;;;;;34.30;27.63;;;4.90;1.00;5.50;101221.00;;;;5012529;28;20457;-83
2022/01/16 00:49:15;;;;;;;31.53;26.30;;;4.90;1.00;5.50;101253.00;;;;5016901;28;20569;-81
2022/01/16 00:51:46;;;;;;;36.27;28.10;;;4.90;1.00;5.50;101280.00;;;;5020626;28;20477;-81
2022/01/16 00:54:15;;;;;;;35.90;29.10;;;4.90;1.00;5.50;101271.00;;;;5023752;28;20474;-80
2022/01/16 00:56:44;;;;;;;33.77;26.20;;;4.90;1.00;5.60;101281.00;;;;5016113;28;20460;-80
2022/01/16 00:59:12;;;;;;;33.63;26.97;;;4.90;1.00;5.50;101282.00;;;;5014897;28;20452;-82
2022/01/16 01:01:42;;;;;;;35.23;27.50;;;4.80;1.00;5.50;101282.00;;;;5015965;28;20628;-79
2022/01/16 01:04:10;;;;;;;34.33;27.13;;;4.80;1.00;5.50;101296.00;;;;5013589;28;20472;-79
2022/01/16 01:06:39;;;;;;;36.00;28.03;;;4.80;1.00;5.50;101300.00;;;;5014754;28;20445;-79
2022/01/16 01:09:07;;;;;;;37.00;27.90;;;4.90;1.00;5.60;101306.00;;;;5016132;28;20545;-84
2022/01/16 01:11:38;;;;;;;38.20;29.40;;;4.90;1.00;5.60;101275.00;;;;5017066;28;20567;-79
2022/01/16 01:14:19;;;;;;;36.90;27.83;;;5.00;1.00;5.60;101267.00;;;;5016028;28;20477;-79
2022/01/16 01:16:51;;;;;;;38.90;30.63;;;5.00;1.00;5.60;67502.00;;;;5014891;28;21266;-81
2022/01/16 01:19:25;;;;;;;38.33;29.47;;;5.00;1.00;5.70;101265.00;;;;5018292;28;20460;-79
2022/01/16 01:21:54;;;;;;;37.43;28.07;;;5.10;1.00;5.70;101284.00;;;;5035666;28;20476;-83
2022/01/16 01:24:23;;;;;;;38.00;27.50;;;5.00;1.00;5.50;100868.00;;;;5019443;28;20464;-81
2022/01/16 01:26:59;;;;;;;36.23;26.40;;;4.90;1.00;5.40;101255.00;;;;5016287;28;20540;-80
2022/01/16 01:29:29;;;;;;;37.87;24.77;;;4.80;1.00;5.30;101203.00;;;;5022377;28;20989;-80
2022/01/16 01:32:00;;;;;;;36.43;24.73;;;4.70;1.00;5.20;101185.00;;;;5017955;28;20477;-80
2022/01/16 01:34:30;;;;;;;34.10;23.97;;;4.70;1.00;217.30;158915.00;;;;5020061;28;20496;-79
2022/01/16 01:36:58;;;;;;;37.80;27.00;;;4.60;1.00;5.30;67430.00;;;;5021464;28;20461;-79
2022/01/16 01:39:26;;;;;;;36.73;27.57;;;4.60;1.00;5.30;100912.00;;;;5021536;28;20579;-78
2022/01/16 01:42:07;;;;;;;39.37;27.03;;;4.60;1.00;5.20;101169.00;;;;5017813;28;20835;-82
2022/01/16 01:52:58;;;;;;;40.10;26.00;;;4.50;1.00;217.30;158893.00;;;;5022189;28;20484;-82
2022/01/16 01:55:27;;;;;;;36.60;24.20;;;4.50;1.00;5.10;101267.00;;;;5020864;28;20450;-81
2022/01/16 01:57:55;;;;;;;32.50;23.23;;;4.40;1.00;5.10;101266.00;;;;5020096;28;20458;-79
2022/01/16 02:00:24;;;;;;;35.33;22.63;;;4.40;1.00;5.00;101277.00;;;;5018115;28;20470;-79
2022/01/16 02:03:11;;;;;;;31.40;20.73;;;4.40;1.00;5.00;101260.00;;;;5019680;28;20973;-79
2022/01/16 02:05:42;;;;;;;33.97;22.27;;;4.50;1.00;5.00;101184.00;;;;5023760;28;20460;-81
2022/01/16 02:08:11;;;;;;;27.67;17.50;;;4.40;1.00;5.00;101258.00;;;;5020748;28;20457;-80
2022/01/16 02:10:41;;;;;;;31.20;19.50;;;4.30;1.00;4.80;101257.00;;;;5019174;28;20445;-79
2022/01/16 02:13:19;;;;;;;31.00;19.47;;;4.20;1.00;4.80;101260.00;;;;5041537;28;20519;-79
2022/01/16 02:32:47;;;;;;;32.90;19.30;;;3.90;1.00;217.30;158667.00;;;;5033328;28;20469;-79
2022/01/16 02:35:15;;;;;;;34.20;19.33;;;4.00;1.00;4.60;101283.00;;;;5018263;28;20470;-78
2022/01/16 02:37:43;;;;;;;36.30;21.40;;;3.90;1.00;4.50;101279.00;;;;5019516;28;21030;-78
2022/01/16 02:40:20;;;;;;;37.30;22.27;;;3.90;1.00;4.50;101270.00;;;;5022530;28;20446;-78
2022/01/16 02:42:51;;;;;;;40.50;23.57;;;3.80;1.00;4.40;101243.00;;;;5022476;28;20481;-79
2022/01/16 02:45:30;;;;;;;40.37;24.77;;;3.80;1.00;4.40;101255.00;;;;5022802;28;20483;-79
2022/01/16 02:48:03;;;;;;;40.17;24.10;;;3.80;1.00;4.40;101263.00;;;;5022768;28;20476;-82
2022/01/16 02:50:32;;;;;;;40.67;24.80;;;3.80;1.00;4.40;67239.00;;;;5022483;28;20456;-80
2022/01/16 02:53:06;;;;;;;45.43;26.43;;;3.80;1.00;4.50;101253.00;;;;5019847;28;20480;-79
2022/01/16 02:55:40;;;;;;;50.23;25.77;;;3.90;1.00;4.60;67267.00;;;;5022714;28;20488;-79
2022/01/16 02:58:09;;;;;;;44.93;25.47;;;3.90;1.00;4.60;101227.00;;;;5025026;28;20805;-78
2022/01/16 03:00:37;;;;;;;47.07;28.00;;;4.00;1.00;4.60;101213.00;;;;5017633;28;20891;-79
2022/01/16 03:03:06;;;;;;;49.50;28.27;;;4.00;1.00;4.60;101217.00;;;;5019621;28;20508;-78
2022/01/16 03:05:35;;;;;;;50.07;27.80;;;4.00;1.00;4.60;101215.00;;;;5019036;28;20445;-81
2022/01/16 03:08:06;;;;;;;50.93;27.80;;;4.00;1.00;4.60;101210.00;;;;5017550;28;20454;-79
2022/01/16 03:11:09;;;;;;;60.00;31.17;;;3.90;1.00;4.60;101218.00;;;;5019531;28;20456;-81
2022/01/16 03:13:42;;;;;;;51.97;26.93;;;4.00;1.00;4.60;101213.00;;;;5031537;28;20456;-78
2022/01/16 03:16:10;;;;;;;55.10;28.43;;;4.10;1.00;4.60;101211.00;;;;5018358;28;20456;-79
2022/01/16 03:24:17;;;;;;;50.10;27.43;;;3.90;1.00;4.50;101197.00;;;;5020113;28;20461;-81
2022/01/16 03:26:46;;;;;;;59.90;28.43;;;3.90;1.00;4.50;67250.00;;;;5037955;28;20448;-82
2022/01/16 03:29:15;;;;;;;63.13;29.90;;;3.90;1.00;4.50;101179.00;;;;5038410;28;20490;-81
2022/01/16 03:31:43;;;;;;;60.73;29.17;;;3.90;1.00;4.50;101187.00;;;;5044447;28;20469;-79
2022/01/16 03:34:12;;;;;;;58.33;28.70;;;3.90;1.00;4.60;101180.00;;;;5039461;28;20496;-82
2022/01/16 03:36:40;;;;;;;60.50;29.03;;;4.00;1.00;4.60;101182.00;;;;5047152;28;20432;-81
2022/01/16 03:39:08;;;;;;;55.30;26.57;;;4.00;1.00;4.50;101187.00;;;;5046022;28;21309;-80
2022/01/16 03:41:37;;;;;;;55.60;29.20;;;3.90;1.00;4.50;67245.00;;;;5036511;28;20929;-79
2022/01/16 03:44:08;;;;;;;52.83;28.83;;;3.90;1.00;4.40;101193.00;;;;5034858;28;20453;-80
2022/01/16 03:46:40;;;;;;;59.57;28.97;;;3.80;1.00;4.30;101178.00;;;;5031740;28;20477;-79
2022/01/16 03:49:12;;;;;;;58.80;31.83;;;3.70;1.00;4.30;101187.00;;;;5031800;28;20959;-79
2022/01/16 03:51:44;;;;;;;59.07;31.73;;;3.70;1.00;4.40;101192.00;;;;5032985;28;21016;-79
2022/01/16 03:54:15;;;;;;;59.87;30.30;;;3.70;1.00;4.40;101184.00;;;;5037480;28;20477;-79
2022/01/16 03:56:44;;;;;;;63.80;29.77;;;3.80;1.00;4.40;101192.00;;;;5032843;28;20893;-79
2022/01/16 03:59:14;;;;;;;58.37;29.37;;;3.80;1.00;4.50;101192.00;;;;5022693;28;20467;-80
2022/01/16 04:01:43;;;;;;;60.73;31.00;;;3.80;1.00;4.40;101179.00;;;;5024603;28;20499;-80
2022/01/16 04:04:12;;;;;;;60.43;29.47;;;3.80;1.00;4.40;67217.00;;;;5023032;28;20547;-80
2022/01/16 04:06:41;;;;;;;59.77;29.60;;;3.80;1.00;4.40;101178.00;;;;5020624;28;20505;-80
2022/01/16 04:09:09;;;;;;;72.90;31.97;;;3.80;1.00;4.40;101179.00;;;;5035518;28;20492;-80
2022/01/16 04:11:44;;;;;;;66.30;32.57;;;3.80;1.00;4.40;101175.00;;;;5016923;28;20486;-79
2022/01/16 04:14:21;;;;;;;69.03;32.30;;;3.80;1.00;4.30;67210.00;;;;5016578;28;20480;-79
2022/01/16 04:16:50;;;;;;;64.30;30.67;;;4.00;1.00;4.30;101181.00;;;;5046488;28;20441;-79
2022/01/16 04:19:21;;;;;;;67.73;32.00;;;3.70;1.00;4.30;101187.00;;;;5017940;28;20469;-79
2022/01/16 04:21:49;;;;;;;72.10;33.20;;;3.70;1.00;4.40;101109.00;;;;5024142;28;20530;-79
2022/01/16 04:24:17;;;;;;;71.93;35.70;;;3.80;1.00;4.30;101196.00;;;;5032341;28;20643;-79
2022/01/16 04:26:45;;;;;;;70.07;33.50;;;3.80;1.00;4.30;101192.00;;;;5020576;28;20463;-78
2022/01/16 04:29:15;;;;;;;71.37;34.33;;;3.70;1.00;4.30;67203.00;;;;5020930;28;20457;-79
2022/01/16 04:31:43;;;;;;;66.80;32.27;;;3.70;1.00;4.30;101183.00;;;;5015934;28;20473;-79
2022/01/16 04:34:13;;;;;;;66.97;33.70;;;3.70;1.00;4.20;67181.00;;;;5031556;28;20437;-79
2022/01/16 04:36:41;;;;;;;70.20;33.97;;;3.60;1.00;4.20;101159.00;;;;5018164;28;20441;-79
2022/01/16 04:39:14;;;;;;;78.40;37.00;;;3.60;1.00;4.20;101141.00;;;;5019083;28;20464;-79
2022/01/16 04:44:30;;;;;;;70.57;33.87;;;3.60;1.00;4.10;101154.00;;;;5024122;28;20465;-79
2022/01/16 04:46:59;;;;;;;69.87;36.27;;;3.50;1.00;217.30;158431.00;;;;5017671;28;20484;-79
2022/01/16 04:49:27;;;;;;;64.87;33.47;;;3.50;1.00;4.10;101132.00;;;;5022772;28;20622;-80
2022/01/16 04:51:56;;;;;;;67.33;33.93;;;3.50;1.00;4.20;67183.00;;;;5031647;28;20469;-79
2022/01/16 04:54:25;;;;;;;65.57;34.00;;;3.60;1.00;4.20;101146.00;;;;5039612;28;20464;-80
2022/01/16 04:56:53;;;;;;;48.90;27.90;;;3.60;1.00;4.30;67210.00;;;;5031558;28;20445;-79
2022/01/16 04:59:22;;;;;;;49.20;26.33;;;3.70;1.00;217.30;158536.00;;;;5032369;28;20870;-79
2022/01/16 05:01:52;;;;;;;39.53;21.83;;;3.80;1.00;4.40;101139.00;;;;5028576;28;20487;-79
2022/01/16 05:04:20;;;;;;;39.30;20.80;;;3.80;1.00;52.70;158530.00;;;;5025672;28;20992;-79
2022/01/16 05:06:49;;;;;;;36.53;21.70;;;3.70;1.00;4.30;101137.00;;;;5024123;28;20828;-79
2022/01/16 05:09:17;;;;;;;31.27;19.43;;;3.70;1.00;4.30;101147.00;;;;5024731;28;20464;-78
2022/01/16 05:11:46;;;;;;;36.73;21.90;;;3.70;1.00;4.20;101156.00;;;;5022281;28;20464;-78
2022/01/16 05:16:58;;;;;;;34.93;21.77;;;3.60;1.00;4.20;101167.00;;;;5008297;28;20504;-79
2022/01/16 05:19:26;;;;;;;44.10;25.23;;;3.60;1.00;4.30;101157.00;;;;5030285;28;20475;-78
2022/01/16 05:21:54;;;;;;;41.40;23.43;;;3.70;1.00;4.30;101162.00;;;;5029566;28;20476;-81
2022/01/16 05:24:24;;;;;;;37.00;22.80;;;3.70;1.00;4.20;101178.00;;;;5032014;28;20456;-80
2022/01/16 05:26:53;;;;;;;36.97;24.57;;;3.70;1.00;4.10;101182.00;;;;5054866;28;20453;-80
2022/01/16 05:29:21;;;;;;;32.07;21.20;;;3.50;1.00;4.00;101185.00;;;;5032503;28;20442;-78
2022/01/16 05:31:49;;;;;;;35.07;23.47;;;3.40;1.00;4.00;101186.00;;;;5032087;28;20472;-80
2022/01/16 05:34:19;;;;;;;37.17;21.87;;;3.40;1.00;3.90;101187.00;;;;5029514;28;20453;-78
2022/01/16 05:36:48;;;;;;;33.10;22.90;;;3.40;1.00;4.00;101195.00;;;;5021302;28;20469;-79
2022/01/16 05:39:16;;;;;;;32.53;21.23;;;3.40;1.00;4.00;101186.00;;;;5024773;28;20467;-79
2022/01/16 05:41:45;;;;;;;28.70;20.13;;;3.40;1.00;3.90;101189.00;;;;5037015;28;20475;-80
2022/01/16 05:44:13;;;;;;;30.37;20.10;;;3.40;1.00;4.00;101197.00;;;;5020033;28;20463;-79
2022/01/16 05:46:41;;;;;;;29.57;19.47;;;3.40;1.00;4.00;101209.00;;;;5021610;28;20459;-78
2022/01/16 05:49:10;;;;;;;26.50;17.33;;;3.40;1.00;4.00;101195.00;;;;5021762;28;21080;-82
2022/01/16 05:51:39;;;;;;;27.70;19.20;;;3.40;1.00;4.00;101203.00;;;;5021701;28;20936;-79
2022/01/16 05:54:08;;;;;;;27.47;18.97;;;3.40;1.00;4.00;101219.00;;;;5021021;28;20465;-79
2022/01/16 05:56:36;;;;;;;29.97;19.63;;;3.30;1.00;4.00;101204.00;;;;5019700;28;20465;-79
2022/01/16 05:59:04;;;;;;;26.90;19.83;;;3.40;1.00;3.90;67134.00;;;;5019572;28;20456;-81
2022/01/16 06:01:33;;;;;;;29.13;17.93;;;3.30;1.00;3.90;67123.00;;;;5020679;28;21258;-79
2022/01/16 06:04:01;;;;;;;26.50;19.33;;;3.30;1.00;3.90;67125.00;;;;5022074;28;20460;-80
2022/01/16 06:06:29;;;;;;;26.57;18.03;;;3.30;1.00;3.80;67096.00;;;;5019387;28;20528;-79
2022/01/16 06:08:59;;;;;;;26.87;17.90;;;3.20;1.00;3.80;101191.00;;;;5019745;28;20472;-80
2022/01/16 06:11:27;;;;;;;26.27;18.27;;;3.20;1.00;3.80;101189.00;;;;5024217;28;20472;-79
2022/01/16 06:13:56;;;;;;;26.00;17.67;;;3.20;1.00;3.90;67107.00;;;;5025806;28;20456;-80
2022/01/16 06:16:24;;;;;;;29.13;20.33;;;3.20;1.00;3.90;67123.00;;;;5027051;28;20488;-79
2022/01/16 06:18:53;;;;;;;29.67;20.50;;;3.30;1.00;4.00;101192.00;;;;5022162;28;20469;-80
2022/01/16 06:21:21;;;;;;;30.17;21.13;;;3.40;1.00;4.10;101184.00;;;;5020729;28;20472;-78
2022/01/16 06:23:49;;;;;;;26.10;19.23;;;3.40;1.00;4.10;101182.00;;;;5021327;28;20840;-80
2022/01/16 06:26:19;;;;;;;28.40;20.30;;;3.40;1.00;4.10;67153.00;;;;5025494;28;20461;-80
2022/01/16 06:28:47;;;;;;;24.90;18.03;;;3.40;1.00;4.10;101206.00;;;;5022719;28;20480;-80
2022/01/16 06:31:16;;;;;;;23.03;17.40;;;3.40;1.00;4.10;101228.00;;;;5021505;28;20480;-80
2022/01/16 06:33:44;;;;;;;24.80;17.67;;;3.40;1.00;4.20;101219.00;;;;5026611;28;20471;-79
2022/01/16 06:36:12;;;;;;;24.33;16.70;;;3.50;1.00;4.20;101244.00;;;;5032115;28;20488;-79
2022/01/16 06:38:40;;;;;;;20.27;15.00;;;3.60;1.00;4.20;101229.00;;;;5017297;28;20464;-79
2022/01/16 06:41:09;;;;;;;18.00;13.67;;;3.60;1.00;4.10;101230.00;;;;5016719;28;20476;-79
2022/01/16 06:43:39;;;;;;;17.97;12.87;;;3.50;1.00;4.00;67150.00;;;;5015549;28;20456;-78
2022/01/16 06:46:08;;;;;;;17.20;11.30;;;3.40;1.00;3.90;101234.00;;;;5014087;28;20460;-78
2022/01/16 06:48:37;;;;;;;14.87;11.90;;;3.30;1.00;3.90;101247.00;;;;5017617;28;20461;-80
2022/01/16 06:51:05;;;;;;;18.60;12.60;;;3.20;1.00;3.90;101250.00;;;;5016761;28;20472;-79
2022/01/16 06:53:34;;;;;;;17.33;12.00;;;3.30;1.00;3.80;101226.00;;;;5032241;28;20468;-80
2022/01/16 06:56:04;;;;;;;15.80;11.60;;;3.20;1.00;3.70;101232.00;;;;5013320;28;21054;-79
2022/01/16 06:58:33;;;;;;;16.57;12.30;;;3.10;1.00;3.70;101246.00;;;;5018081;28;20460;-79
2022/01/16 07:01:02;;;;;;;13.60;11.20;;;3.10;1.00;3.80;101237.00;;;;5018510;28;20453;-79
2022/01/16 07:03:31;;;;;;;17.37;13.30;;;3.20;1.00;3.90;101248.00;;;;5015487;28;20888;-79
2022/01/16 07:06:00;;;;;;;15.10;12.10;;;3.20;1.00;3.90;101244.00;;;;5021080;28;20456;-79
2022/01/16 07:08:29;;;;;;;15.80;13.10;;;3.30;1.00;3.90;101241.00;;;;5016358;28;20958;-80
2022/01/16 07:10:59;;;;;;;17.23;12.50;;;3.30;1.00;3.90;101253.00;;;;5016111;28;20456;-79
2022/01/16 07:13:29;;;;;;;19.10;14.10;;;3.40;1.00;4.00;101254.00;;;;5016669;28;20457;-79
2022/01/16 07:15:58;;;;;;;16.60;13.17;;;3.40;1.00;4.10;101254.00;;;;5017282;28;20484;-79
2022/01/16 07:18:28;;;;;;;17.13;13.00;;;3.50;1.00;4.10;101262.00;;;;5048842;28;20490;-79
2022/01/16 07:20:57;;;;;;;18.47;15.00;;;3.60;1.00;4.20;101275.00;;;;5030178;28;20454;-79
2022/01/16 07:23:25;;;;;;;18.20;13.90;;;3.60;1.00;4.20;101268.00;;;;5025465;28;20973;-80
2022/01/16 07:25:54;;;;;;;15.93;13.37;;;3.60;1.00;4.30;101275.00;;;;5018896;28;20457;-79
2022/01/16 07:28:22;;;;;;;15.07;12.40;;;3.70;1.00;4.40;101268.00;;;;5018139;28;20449;-79
2022/01/16 07:30:51;;;;;;;16.10;12.70;;;3.80;1.00;217.30;158556.00;;;;5016689;28;20448;-79
2022/01/16 07:33:19;;;;;;;12.27;10.27;;;3.80;1.00;4.30;67202.00;;;;5018212;28;20456;-78
2022/01/16 07:35:48;;;;;;;13.80;11.80;;;3.70;1.00;4.30;101282.00;;;;5017678;28;20458;-77
2022/01/16 07:38:17;;;;;;;12.93;11.20;;;3.70;1.00;52.70;158520.00;;;;5017607;28;20449;-80
2022/01/16 07:40:45;;;;;;;13.43;10.63;;;3.70;1.00;4.30;101298.00;;;;5019031;28;20460;-78
2022/01/16 07:43:15;;;;;;;12.80;11.00;;;3.70;1.00;4.30;101284.00;;;;5014843;28;20473;-78
2022/01/16 07:45:43;;;;;;;12.37;10.47;;;3.70;1.00;217.30;158514.00;;;;5019188;28;20441;-78
2022/01/16 07:48:12;;;;;;;10.97;9.53;;;3.70;1.00;4.30;101303.00;;;;5019037;28;21036;-80
2022/01/16 07:50:41;;;;;;;11.83;10.33;;;3.70;1.00;4.20;101314.00;;;;5019235;28;20512;-78
2022/01/16 07:53:11;;;;;;;11.80;10.37;;;3.70;1.00;4.20;101310.00;;;;5016633;28;20484;-80
2022/01/16 07:55:39;;;;;;;10.40;9.23;;;3.60;1.00;4.30;101316.00;;;;5020749;28;20969;-79
2022/01/16 07:58:07;;;;;;;11.80;10.20;;;3.70;1.00;217.30;158520.00;;;;5018245;28;20480;-79
2022/01/16 08:00:36;;;;;;;11.17;10.07;;;3.70;1.00;4.30;101313.00;;;;5019075;28;20454;-78
2022/01/16 08:03:04;;;;;;;10.90;9.70;;;3.70;1.00;4.40;101309.00;;;;5017537;28;20477;-78
2022/01/16 08:05:34;;;;;;;11.53;8.90;;;3.80;1.00;4.40;101318.00;;;;5029993;28;20473;-78
2022/01/16 08:08:03;;;;;;;12.57;10.23;;;3.80;1.00;4.40;101312.00;;;;5033889;28;21060;-80
2022/01/16 08:10:33;;;;;;;15.83;10.67;;;3.80;1.00;4.30;101317.00;;;;5032347;28;20464;-79
2022/01/16 08:13:02;;;;;;;12.27;10.97;;;3.80;1.00;4.30;101326.00;;;;5029924;28;20482;-80
2022/01/16 08:15:30;;;;;;;11.70;10.07;;;3.80;1.00;4.30;101338.00;;;;5027911;28;20473;-78
2022/01/16 08:17:59;;;;;;;14.43;10.70;;;3.70;1.00;4.20;67191.00;;;;5023157;28;20862;-79
2022/01/16 08:20:27;;;;;;;15.00;11.83;;;3.70;1.00;4.20;67188.00;;;;5018895;28;20465;-79
2022/01/16 08:22:56;;;;;;;12.50;10.83;;;3.60;1.00;4.30;67197.00;;;;5016278;28;20481;-80
2022/01/16 08:25:26;;;;;;;14.10;12.47;;;3.70;1.00;4.30;101325.00;;;;5020404;28;20458;-79
2022/01/16 08:27:55;;;;;;;14.10;12.60;;;3.70;1.00;4.30;101321.00;;;;5022073;28;20460;-83
2022/01/16 08:30:24;;;;;;;17.30;13.63;;;3.80;1.00;4.30;101321.00;;;;5022057;28;20961;-80
2022/01/16 08:32:52;;;;;;;15.90;13.70;;;3.80;1.00;4.40;101329.00;;;;5030776;28;20480;-80
2022/01/16 08:35:21;;;;;;;16.73;13.33;;;3.80;1.00;4.40;101312.00;;;;5025649;28;20489;-79
2022/01/16 08:37:50;;;;;;;16.23;14.53;;;3.80;1.00;4.30;101324.00;;;;5029687;28;20559;-81
2022/01/16 08:40:18;;;;;;;18.60;14.73;;;3.80;1.00;4.30;101308.00;;;;5024025;28;20465;-81
2022/01/16 08:42:47;;;;;;;17.23;13.87;;;3.70;1.00;4.40;101306.00;;;;5029565;28;20481;-79
2022/01/16 08:45:17;;;;;;;19.50;16.70;;;3.80;1.00;4.40;67230.00;;;;5033552;28;20453;-77
2022/01/16 08:47:46;;;;;;;18.57;14.60;;;3.80;1.00;4.50;67261.00;;;;5024539;28;20713;-79
2022/01/16 08:50:17;;;;;;;24.43;16.33;;;3.90;1.00;4.60;101316.00;;;;5036078;28;20457;-78
2022/01/16 08:52:46;;;;;;;21.57;15.40;;;4.00;1.00;217.30;158667.00;;;;5024346;28;21168;-80
2022/01/16 08:55:14;;;;;;;17.70;15.03;;;4.00;1.00;4.60;101324.00;;;;5021397;28;20472;-78
2022/01/16 08:57:43;;;;;;;19.33;14.87;;;4.00;1.00;4.50;101348.00;;;;5021706;28;20484;-79
2022/01/16 09:00:12;;;;;;;20.63;16.80;;;4.00;1.00;4.50;101345.00;;;;5043880;28;20461;-78
2022/01/16 09:02:42;;;;;;;22.60;16.40;;;4.00;1.00;4.60;67268.00;;;;5023170;28;20868;-78
2022/01/16 09:05:11;;;;;;;22.27;16.50;;;4.00;1.00;4.60;67267.00;;;;5020328;28;20480;-80
2022/01/16 09:07:40;;;;;;;24.07;18.47;;;4.10;1.00;4.50;67256.00;;;;5017093;28;20445;-78
2022/01/16 09:10:09;;;;;;;22.07;17.83;;;4.00;1.00;4.60;67258.00;;;;5018172;28;20460;-79
2022/01/16 09:12:38;;;;;;;25.23;19.23;;;4.00;1.00;4.60;67281.00;;;;5021749;28;20472;-79
2022/01/16 09:15:09;;;;;;;26.87;18.50;;;4.10;1.00;217.30;158687.00;;;;5017536;28;21107;-78
2022/01/16 09:17:38;;;;;;;26.10;20.47;;;4.10;1.00;4.70;67285.00;;;;5019945;28;20503;-78
2022/01/16 09:20:13;;;;;;;28.17;20.53;;;4.10;1.00;4.60;67275.00;;;;5021171;28;20511;-80
2022/01/16 09:22:43;;;;;;;28.83;21.80;;;4.10;1.00;4.50;101360.00;;;;5019212;28;20476;-80
2022/01/16 09:25:13;;;;;;;28.07;21.43;;;4.00;1.00;4.50;67256.00;;;;5021965;28;20640;-80
2022/01/16 09:27:42;;;;;;;29.33;20.97;;;4.00;1.00;4.60;67275.00;;;;5024199;28;20460;-78
2022/01/16 09:30:13;;;;;;;32.20;22.57;;;4.10;1.00;4.60;67272.00;;;;5019037;28;20562;-78
2022/01/16 09:32:41;;;;;;;28.27;20.80;;;4.00;1.00;4.60;101375.00;;;;5024964;28;20488;-79
2022/01/16 09:35:12;;;;;;;31.70;21.27;;;4.00;1.00;4.50;101398.00;;;;5040570;28;20467;-80
2022/01/16 09:37:42;;;;;;;27.23;20.60;;;4.00;1.00;217.30;158588.00;;;;5044384;28;20490;-81
2022/01/16 09:40:14;;;;;;;27.20;21.93;;;3.90;1.00;217.30;158620.00;;;;5026424;28;20468;-82
2022/01/16 09:42:43;;;;;;;32.57;21.43;;;4.00;1.00;4.60;101397.00;;;;5026893;28;20561;-80
2022/01/16 09:45:15;;;;;;;31.03;21.30;;;4.10;1.00;217.30;158671.00;;;;5024599;28;20457;-80
2022/01/16 09:47:45;;;;;;;30.20;22.90;;;4.10;1.00;4.80;101401.00;;;;5022295;28;21161;-79
2022/01/16 09:50:20;;;;;;;29.93;20.70;;;4.20;1.00;4.80;101382.00;;;;5023541;28;20461;-80
2022/01/16 09:52:49;;;;;;;35.10;24.50;;;4.30;1.00;4.90;101386.00;;;;5023121;28;20469;-82
2022/01/16 09:55:20;;;;;;;35.43;24.03;;;4.30;1.00;4.90;101408.00;;;;5020700;28;20461;-80
2022/01/16 09:57:50;;;;;;;33.20;22.17;;;4.30;1.00;4.90;101403.00;;;;5020562;28;20472;-81
2022/01/16 10:00:21;;;;;;;35.63;23.20;;;4.40;1.00;217.30;158826.00;;;;5029273;28;20446;-82
2022/01/16 10:02:49;;;;;;;34.23;21.80;;;4.50;1.00;52.70;158816.00;;;;5029685;28;20475;-81
2022/01/16 10:05:34;;;;;;;31.93;23.63;;;4.50;1.00;5.10;67388.00;;;;5030377;28;20736;-82
2022/01/16 10:08:05;;;;;;;36.57;24.80;;;4.60;1.00;5.20;67410.00;;;;5030812;28;20464;-81
2022/01/16 10:10:36;;;;;;;35.50;22.43;;;4.70;1.00;5.30;101392.00;;;;5033210;28;20492;-82
2022/01/16 10:13:21;;;;;;;33.33;23.80;;;4.70;1.00;5.30;101401.00;;;;5031877;28;20485;-81
2022/01/16 10:15:54;;;;;;;33.63;22.30;;;4.80;1.00;5.20;67395.00;;;;5031316;28;20438;-81
2022/01/16 10:18:34;;;;;;;32.40;22.60;;;4.70;1.00;5.10;101397.00;;;;5031464;28;20880;-81
2022/01/16 10:21:05;;;;;;;34.67;23.17;;;4.60;1.00;217.30;158862.00;;;;5033240;28;20717;-81
2022/01/16 10:23:40;;;;;;;37.30;22.40;;;4.80;1.00;5.00;67365.00;;;;5052465;28;20524;-82
2022/01/16 10:26:18;;;;;;;32.83;21.40;;;4.50;1.00;5.00;67352.00;;;;5033996;28;20440;-81
2022/01/16 10:28:47;;;;;;;40.40;24.07;;;4.40;1.00;5.00;101400.00;;;;5041418;28;20458;-82
2022/01/16 10:31:22;;;;;;;33.13;22.47;;;4.40;1.00;4.90;101392.00;;;;5040917;28;20490;-80
2022/01/16 10:33:51;;;;;;;33.00;23.10;;;4.40;1.00;5.00;101400.00;;;;5027618;28;20448;-81
2022/01/16 10:36:34;;;;;;;32.87;22.80;;;4.50;1.00;5.00;101397.00;;;;5024906;28;20846;-80
2022/01/16 10:39:08;;;;;;;33.20;22.77;;;4.40;1.00;5.00;101403.00;;;;5032965;28;20483;-80
2022/01/16 10:41:38;;;;;;;37.60;26.23;;;4.40;1.00;5.00;101403.00;;;;5026089;28;20476;-82
2022/01/16 10:44:26;;;;;;;36.43;23.53;;;4.40;1.00;5.00;101391.00;;;;5027634;28;20453;-82
2022/01/16 10:46:55;;;;;;;37.70;24.13;;;4.60;1.00;5.00;67357.00;;;;5036274;28;20458;-83
2022/01/16 10:49:23;;;;;;;32.33;24.30;;;4.50;1.00;5.00;101397.00;;;;5034135;28;20453;-80
2022/01/16 10:52:09;;;;;;;34.33;23.90;;;4.40;1.00;5.10;67377.00;;;;5040132;28;20524;-82
2022/01/16 10:54:40;;;;;;;30.53;20.33;;;4.50;1.00;5.10;101384.00;;;;5037240;28;20444;-84
2022/01/16 10:57:25;;;;;;;33.67;22.33;;;4.60;1.00;5.10;101398.00;;;;5033667;28;20449;-82
2022/01/16 11:00:09;;;;;;;31.63;20.73;;;4.50;1.00;5.10;67378.00;;;;5033076;28;20480;-80
2022/01/16 11:02:37;;;;;;;36.53;25.47;;;4.50;1.00;5.00;67373.00;;;;5031272;28;20838;-81
2022/01/16 11:05:09;;;;;;;32.17;22.23;;;4.50;1.00;4.90;67339.00;;;;5036975;28;20443;-81
2022/01/16 11:07:40;;;;;;;32.63;23.67;;;4.40;1.00;4.90;67357.00;;;;5040767;28;20476;-81
2022/01/16 11:10:27;;;;;;;29.00;20.50;;;4.40;1.00;217.30;158774.00;;;;5044339;28;20446;-81
2022/01/16 11:12:58;;;;;;;32.20;22.47;;;4.40;1.00;4.90;101390.00;;;;5034688;28;20472;-81
2022/01/16 11:15:28;;;;;;;28.73;20.73;;;4.40;1.00;4.90;101393.00;;;;5037699;28;20430;-80
2022/01/16 11:17:57;;;;;;;36.67;20.87;;;4.40;1.00;4.90;67336.00;;;;5040150;28;20496;-81
2022/01/16 11:20:33;;;;;;;29.73;20.53;;;4.30;1.00;4.80;67328.00;;;;5038223;28;20456;-82
2022/01/16 11:23:13;;;;;;;30.30;20.60;;;4.30;1.00;4.80;67314.00;;;;5031427;28;20484;-82
2022/01/16 11:25:43;;;;;;;32.80;21.73;;;4.30;1.00;4.70;67307.00;;;;5030414;28;20455;-82
2022/01/16 11:28:15;;;;;;;28.77;17.40;;;4.40;1.00;4.60;67267.00;;;;5032258;28;20512;-82
2022/01/16 11:30:47;;;;;;;30.13;21.20;;;4.00;1.00;4.50;67245.00;;;;5031309;28;20523;-82
2022/01/16 11:33:24;;;;;;;30.43;21.30;;;3.90;1.00;4.50;67263.00;;;;5039913;28;20457;-81
2022/01/16 11:35:56;;;;;;;31.20;21.50;;;4.00;1.00;4.60;67272.00;;;;5038120;28;20455;-81
2022/01/16 11:38:35;;;;;;;29.63;19.70;;;4.00;1.00;217.30;158618.00;;;;5034654;28;20504;-80
2022/01/16 11:41:08;;;;;;;31.97;22.77;;;4.00;1.00;4.60;67280.00;;;;5052814;28;20450;-82
2022/01/16 11:43:39;;;;;;;31.20;21.87;;;4.30;1.00;4.70;67280.00;;;;5048997;28;20445;-81
2022/01/16 11:46:15;;;;;;;30.80;22.47;;;4.10;1.00;4.70;101384.00;;;;5032005;28;20446;-82